sensor_id;sensor_type;location;lat;lon;timestamp;P1;durP1;ratioP1;P2;durP2;ratioP2
16890;SDS011;8562;52.246;20.966;2023-05-20T00:00:54;6.77;;;5.10;;
16890;SDS011;8562;52.246;20.966;2023-05-20T00:03:19;4.83;;;3.93;;
16890;SDS011;8562;52.246;20.966;2023-05-20T00:05:45;5.83;;;3.77;;
16890;SDS011;8562;52.246;20.966;2023-05-20T00:08:10;4.57;;;3.50;;
16890;SDS011;8562;52.246;20.966;2023-05-20T00:10:35;7.73;;;4.33;;
16890;SDS011;8562;52.246;20.966;2023-05-20T00:13:01;7.80;;;4.83;;
16890;SDS011;8562;52.246;20.966;2023-05-20T00:15:26;5.63;;;3.47;;
16890;SDS011;8562;52.246;20.966;2023-05-20T00:17:52;4.63;;;3.73;;
16890;SDS011;8562;52.246;20.966;2023-05-20T00:20:17;5.37;;;4.13;;
16890;SDS011;8562;52.246;20.966;2023-05-20T00:22:42;5.07;;;3.70;;
16890;SDS011;8562;52.246;20.966;2023-05-20T00:25:08;10.60;;;4.20;;
16890;SDS011;8562;52.246;20.966;2023-05-20T00:27:33;4.97;;;3.73;;
16890;SDS011;8562;52.246;20.966;2023-05-20T00:29:59;5.50;;;3.37;;
16890;SDS011;8562;52.246;20.966;2023-05-20T00:32:24;4.87;;;3.80;;
16890;SDS011;8562;52.246;20.966;2023-05-20T00:34:56;4.10;;;3.70;;
16890;SDS011;8562;52.246;20.966;2023-05-20T00:37:22;4.63;;;3.63;;
16890;SDS011;8562;52.246;20.966;2023-05-20T00:39:47;6.07;;;4.10;;
16890;SDS011;8562;52.246;20.966;2023-05-20T00:42:19;8.07;;;4.23;;
16890;SDS011;8562;52.246;20.966;2023-05-20T00:44:45;3.97;;;3.43;;
16890;SDS011;8562;52.246;20.966;2023-05-20T00:47:10;5.70;;;3.77;;
16890;SDS011;8562;52.246;20.966;2023-05-20T00:49:36;5.97;;;3.17;;
16890;SDS011;8562;52.246;20.966;2023-05-20T00:52:01;4.40;;;3.60;;
16890;SDS011;8562;52.246;20.966;2023-05-20T00:54:27;6.40;;;3.90;;
16890;SDS011;8562;52.246;20.966;2023-05-20T00:56:52;3.90;;;3.40;;
16890;SDS011;8562;52.246;20.966;2023-05-20T00:59:17;7.30;;;3.47;;
16890;SDS011;8562;52.246;20.966;2023-05-20T01:01:42;4.20;;;3.67;;
16890;SDS011;8562;52.246;20.966;2023-05-20T01:04:08;6.20;;;3.27;;
16890;SDS011;8562;52.246;20.966;2023-05-20T01:06:34;5.93;;;3.80;;
16890;SDS011;8562;52.246;20.966;2023-05-20T01:08:59;9.20;;;4.47;;
16890;SDS011;8562;52.246;20.966;2023-05-20T01:11:28;4.70;;;3.07;;
16890;SDS011;8562;52.246;20.966;2023-05-20T01:13:57;6.13;;;3.97;;
16890;SDS011;8562;52.246;20.966;2023-05-20T01:16:25;5.70;;;3.33;;
16890;SDS011;8562;52.246;20.966;2023-05-20T01:18:52;4.73;;;2.77;;
16890;SDS011;8562;52.246;20.966;2023-05-20T01:21:19;4.57;;;3.10;;
16890;SDS011;8562;52.246;20.966;2023-05-20T01:23:46;4.47;;;3.03;;
16890;SDS011;8562;52.246;20.966;2023-05-20T01:26:12;3.60;;;2.17;;
16890;SDS011;8562;52.246;20.966;2023-05-20T01:28:38;4.93;;;3.10;;
16890;SDS011;8562;52.246;20.966;2023-05-20T01:31:03;3.87;;;2.37;;
16890;SDS011;8562;52.246;20.966;2023-05-20T01:33:29;3.70;;;2.77;;
16890;SDS011;8562;52.246;20.966;2023-05-20T01:35:55;4.33;;;2.77;;
16890;SDS011;8562;52.246;20.966;2023-05-20T01:38:22;5.07;;;3.13;;
16890;SDS011;8562;52.246;20.966;2023-05-20T01:40:47;7.17;;;3.00;;
16890;SDS011;8562;52.246;20.966;2023-05-20T01:43:13;4.20;;;3.30;;
16890;SDS011;8562;52.246;20.966;2023-05-20T01:45:40;5.40;;;3.13;;
16890;SDS011;8562;52.246;20.966;2023-05-20T01:48:06;3.47;;;2.50;;
16890;SDS011;8562;52.246;20.966;2023-05-20T01:50:33;2.60;;;2.30;;
16890;SDS011;8562;52.246;20.966;2023-05-20T01:52:58;5.27;;;3.10;;
16890;SDS011;8562;52.246;20.966;2023-05-20T01:55:23;10.50;;;2.73;;
16890;SDS011;8562;52.246;20.966;2023-05-20T01:57:49;4.17;;;3.07;;
16890;SDS011;8562;52.246;20.966;2023-05-20T02:00:14;5.27;;;2.70;;
16890;SDS011;8562;52.246;20.966;2023-05-20T02:02:39;3.57;;;2.80;;
16890;SDS011;8562;52.246;20.966;2023-05-20T02:05:07;3.80;;;2.60;;
16890;SDS011;8562;52.246;20.966;2023-05-20T02:07:33;4.27;;;2.67;;
16890;SDS011;8562;52.246;20.966;2023-05-20T02:09:58;3.43;;;2.27;;
16890;SDS011;8562;52.246;20.966;2023-05-20T02:12:23;4.03;;;2.57;;
16890;SDS011;8562;52.246;20.966;2023-05-20T02:14:49;6.60;;;3.13;;
16890;SDS011;8562;52.246;20.966;2023-05-20T02:17:15;5.97;;;2.43;;
16890;SDS011;8562;52.246;20.966;2023-05-20T02:19:41;3.17;;;2.07;;
16890;SDS011;8562;52.246;20.966;2023-05-20T02:22:06;3.30;;;2.60;;
16890;SDS011;8562;52.246;20.966;2023-05-20T02:24:31;3.27;;;2.50;;
16890;SDS011;8562;52.246;20.966;2023-05-20T02:26:56;3.23;;;2.33;;
16890;SDS011;8562;52.246;20.966;2023-05-20T02:29:23;5.27;;;2.80;;
16890;SDS011;8562;52.246;20.966;2023-05-20T02:31:49;3.73;;;2.47;;
16890;SDS011;8562;52.246;20.966;2023-05-20T02:34:16;4.57;;;2.30;;
16890;SDS011;8562;52.246;20.966;2023-05-20T02:36:41;3.03;;;2.40;;
16890;SDS011;8562;52.246;20.966;2023-05-20T02:39:07;6.53;;;3.27;;
16890;SDS011;8562;52.246;20.966;2023-05-20T02:41:32;4.43;;;2.30;;
16890;SDS011;8562;52.246;20.966;2023-05-20T02:43:58;3.37;;;1.67;;
16890;SDS011;8562;52.246;20.966;2023-05-20T02:46:23;2.63;;;2.40;;
16890;SDS011;8562;52.246;20.966;2023-05-20T02:48:48;3.10;;;2.43;;
16890;SDS011;8562;52.246;20.966;2023-05-20T02:51:14;4.47;;;2.40;;
16890;SDS011;8562;52.246;20.966;2023-05-20T02:53:39;4.00;;;2.57;;
16890;SDS011;8562;52.246;20.966;2023-05-20T02:56:04;3.70;;;2.43;;
16890;SDS011;8562;52.246;20.966;2023-05-20T02:58:30;3.53;;;2.57;;
16890;SDS011;8562;52.246;20.966;2023-05-20T03:00:57;6.33;;;2.30;;
16890;SDS011;8562;52.246;20.966;2023-05-20T03:03:24;3.37;;;2.40;;
16890;SDS011;8562;52.246;20.966;2023-05-20T03:05:49;3.47;;;2.50;;
16890;SDS011;8562;52.246;20.966;2023-05-20T03:08:17;7.30;;;2.70;;
16890;SDS011;8562;52.246;20.966;2023-05-20T03:10:43;3.93;;;2.50;;
16890;SDS011;8562;52.246;20.966;2023-05-20T03:13:08;2.60;;;2.20;;
16890;SDS011;8562;52.246;20.966;2023-05-20T03:15:39;5.07;;;2.53;;
16890;SDS011;8562;52.246;20.966;2023-05-20T03:18:05;3.03;;;2.70;;
16890;SDS011;8562;52.246;20.966;2023-05-20T03:20:31;5.47;;;2.37;;
16890;SDS011;8562;52.246;20.966;2023-05-20T03:23:01;3.10;;;2.10;;
16890;SDS011;8562;52.246;20.966;2023-05-20T03:25:27;2.40;;;2.07;;
16890;SDS011;8562;52.246;20.966;2023-05-20T03:27:52;5.27;;;2.43;;
16890;SDS011;8562;52.246;20.966;2023-05-20T03:30:18;2.80;;;2.30;;
16890;SDS011;8562;52.246;20.966;2023-05-20T03:32:44;2.43;;;2.23;;
16890;SDS011;8562;52.246;20.966;2023-05-20T03:35:09;3.53;;;2.43;;
16890;SDS011;8562;52.246;20.966;2023-05-20T03:37:35;5.50;;;3.20;;
16890;SDS011;8562;52.246;20.966;2023-05-20T03:40:01;4.60;;;2.60;;
16890;SDS011;8562;52.246;20.966;2023-05-20T03:42:27;7.93;;;2.70;;
16890;SDS011;8562;52.246;20.966;2023-05-20T03:44:53;3.83;;;2.60;;
16890;SDS011;8562;52.246;20.966;2023-05-20T03:47:18;5.03;;;2.77;;
16890;SDS011;8562;52.246;20.966;2023-05-20T03:49:44;4.20;;;1.80;;
16890;SDS011;8562;52.246;20.966;2023-05-20T03:52:09;2.77;;;2.33;;
16890;SDS011;8562;52.246;20.966;2023-05-20T03:54:34;2.37;;;2.13;;
16890;SDS011;8562;52.246;20.966;2023-05-20T03:57:00;2.60;;;2.40;;
16890;SDS011;8562;52.246;20.966;2023-05-20T03:59:27;3.87;;;3.00;;
16890;SDS011;8562;52.246;20.966;2023-05-20T04:01:54;2.83;;;2.60;;
16890;SDS011;8562;52.246;20.966;2023-05-20T04:04:21;3.93;;;2.17;;
16890;SDS011;8562;52.246;20.966;2023-05-20T04:06:46;4.43;;;2.50;;
16890;SDS011;8562;52.246;20.966;2023-05-20T04:09:12;5.00;;;2.40;;
16890;SDS011;8562;52.246;20.966;2023-05-20T04:11:37;2.87;;;2.30;;
16890;SDS011;8562;52.246;20.966;2023-05-20T04:14:03;5.77;;;3.20;;
16890;SDS011;8562;52.246;20.966;2023-05-20T04:16:28;7.00;;;2.40;;
16890;SDS011;8562;52.246;20.966;2023-05-20T04:18:54;3.40;;;2.60;;
16890;SDS011;8562;52.246;20.966;2023-05-20T04:21:20;4.47;;;2.80;;
16890;SDS011;8562;52.246;20.966;2023-05-20T04:23:46;3.17;;;2.23;;
16890;SDS011;8562;52.246;20.966;2023-05-20T04:26:11;4.37;;;2.63;;
16890;SDS011;8562;52.246;20.966;2023-05-20T04:28:37;3.30;;;2.50;;
16890;SDS011;8562;52.246;20.966;2023-05-20T04:31:03;3.70;;;2.40;;
16890;SDS011;8562;52.246;20.966;2023-05-20T04:33:30;6.77;;;3.00;;
16890;SDS011;8562;52.246;20.966;2023-05-20T04:35:57;2.67;;;2.20;;
16890;SDS011;8562;52.246;20.966;2023-05-20T04:38:23;5.13;;;2.80;;
16890;SDS011;8562;52.246;20.966;2023-05-20T04:40:54;3.47;;;3.00;;
16890;SDS011;8562;52.246;20.966;2023-05-20T04:43:22;3.97;;;2.30;;
16890;SDS011;8562;52.246;20.966;2023-05-20T04:45:47;5.73;;;2.97;;
16890;SDS011;8562;52.246;20.966;2023-05-20T04:48:13;2.90;;;2.60;;
16890;SDS011;8562;52.246;20.966;2023-05-20T04:50:38;3.07;;;2.67;;
16890;SDS011;8562;52.246;20.966;2023-05-20T04:53:05;4.00;;;2.60;;
16890;SDS011;8562;52.246;20.966;2023-05-20T04:55:30;2.77;;;2.17;;
16890;SDS011;8562;52.246;20.966;2023-05-20T04:57:56;3.87;;;2.37;;
16890;SDS011;8562;52.246;20.966;2023-05-20T05:00:21;3.00;;;2.43;;
16890;SDS011;8562;52.246;20.966;2023-05-20T05:02:48;6.23;;;3.20;;
16890;SDS011;8562;52.246;20.966;2023-05-20T05:05:14;5.00;;;2.80;;
16890;SDS011;8562;52.246;20.966;2023-05-20T05:07:40;6.00;;;2.70;;
16890;SDS011;8562;52.246;20.966;2023-05-20T05:10:05;4.77;;;2.43;;
16890;SDS011;8562;52.246;20.966;2023-05-20T05:12:31;3.67;;;2.73;;
16890;SDS011;8562;52.246;20.966;2023-05-20T05:14:57;3.23;;;2.57;;
16890;SDS011;8562;52.246;20.966;2023-05-20T05:17:23;2.67;;;2.30;;
16890;SDS011;8562;52.246;20.966;2023-05-20T05:19:48;3.67;;;2.40;;
16890;SDS011;8562;52.246;20.966;2023-05-20T05:22:14;2.50;;;2.23;;
16890;SDS011;8562;52.246;20.966;2023-05-20T05:24:39;2.83;;;2.03;;
16890;SDS011;8562;52.246;20.966;2023-05-20T05:27:04;2.73;;;2.30;;
16890;SDS011;8562;52.246;20.966;2023-05-20T05:29:30;2.40;;;2.20;;
16890;SDS011;8562;52.246;20.966;2023-05-20T05:31:55;2.30;;;2.10;;
16890;SDS011;8562;52.246;20.966;2023-05-20T05:34:20;3.47;;;2.60;;
16890;SDS011;8562;52.246;20.966;2023-05-20T05:36:46;3.03;;;2.23;;
16890;SDS011;8562;52.246;20.966;2023-05-20T05:39:11;4.40;;;2.27;;
16890;SDS011;8562;52.246;20.966;2023-05-20T05:41:37;4.50;;;2.23;;
16890;SDS011;8562;52.246;20.966;2023-05-20T05:44:03;7.67;;;2.20;;
16890;SDS011;8562;52.246;20.966;2023-05-20T05:46:28;3.73;;;2.73;;
16890;SDS011;8562;52.246;20.966;2023-05-20T05:48:54;3.37;;;2.53;;
16890;SDS011;8562;52.246;20.966;2023-05-20T05:51:20;6.07;;;2.57;;
16890;SDS011;8562;52.246;20.966;2023-05-20T05:53:47;9.33;;;2.47;;
16890;SDS011;8562;52.246;20.966;2023-05-20T05:56:12;4.77;;;2.27;;
16890;SDS011;8562;52.246;20.966;2023-05-20T05:58:38;3.63;;;2.30;;
16890;SDS011;8562;52.246;20.966;2023-05-20T06:01:05;3.00;;;2.27;;
16890;SDS011;8562;52.246;20.966;2023-05-20T06:03:31;3.23;;;2.33;;
16890;SDS011;8562;52.246;20.966;2023-05-20T06:05:56;3.83;;;2.27;;
16890;SDS011;8562;52.246;20.966;2023-05-20T06:08:22;2.20;;;1.97;;
16890;SDS011;8562;52.246;20.966;2023-05-20T06:10:48;4.80;;;2.63;;
16890;SDS011;8562;52.246;20.966;2023-05-20T06:13:14;4.10;;;2.60;;
16890;SDS011;8562;52.246;20.966;2023-05-20T06:15:39;3.23;;;2.30;;
16890;SDS011;8562;52.246;20.966;2023-05-20T06:18:05;4.17;;;2.67;;
16890;SDS011;8562;52.246;20.966;2023-05-20T06:20:31;6.20;;;2.50;;
16890;SDS011;8562;52.246;20.966;2023-05-20T06:22:58;4.00;;;2.37;;
16890;SDS011;8562;52.246;20.966;2023-05-20T06:25:29;2.73;;;2.33;;
16890;SDS011;8562;52.246;20.966;2023-05-20T06:27:54;6.77;;;2.60;;
16890;SDS011;8562;52.246;20.966;2023-05-20T06:30:21;3.30;;;2.47;;
16890;SDS011;8562;52.246;20.966;2023-05-20T06:32:46;3.97;;;2.10;;
16890;SDS011;8562;52.246;20.966;2023-05-20T06:35:12;4.40;;;2.60;;
16890;SDS011;8562;52.246;20.966;2023-05-20T06:37:38;3.40;;;2.27;;
16890;SDS011;8562;52.246;20.966;2023-05-20T06:40:03;4.63;;;2.73;;
16890;SDS011;8562;52.246;20.966;2023-05-20T06:42:29;3.70;;;2.33;;
16890;SDS011;8562;52.246;20.966;2023-05-20T06:45:02;2.40;;;2.20;;
16890;SDS011;8562;52.246;20.966;2023-05-20T06:47:34;6.10;;;2.77;;
16890;SDS011;8562;52.246;20.966;2023-05-20T06:50:00;7.43;;;2.90;;
16890;SDS011;8562;52.246;20.966;2023-05-20T06:52:25;5.23;;;2.43;;
16890;SDS011;8562;52.246;20.966;2023-05-20T06:54:51;3.43;;;2.73;;
16890;SDS011;8562;52.246;20.966;2023-05-20T06:57:16;4.33;;;2.63;;
16890;SDS011;8562;52.246;20.966;2023-05-20T06:59:42;6.50;;;2.53;;
16890;SDS011;8562;52.246;20.966;2023-05-20T07:02:07;6.43;;;3.20;;
16890;SDS011;8562;52.246;20.966;2023-05-20T07:04:32;2.30;;;2.00;;
16890;SDS011;8562;52.246;20.966;2023-05-20T07:06:58;4.40;;;2.87;;
16890;SDS011;8562;52.246;20.966;2023-05-20T07:09:23;4.80;;;2.90;;
16890;SDS011;8562;52.246;20.966;2023-05-20T07:11:49;6.70;;;2.80;;
16890;SDS011;8562;52.246;20.966;2023-05-20T07:14:15;6.37;;;2.60;;
16890;SDS011;8562;52.246;20.966;2023-05-20T07:16:40;4.53;;;2.50;;
16890;SDS011;8562;52.246;20.966;2023-05-20T07:19:07;4.57;;;3.20;;
16890;SDS011;8562;52.246;20.966;2023-05-20T07:21:32;6.23;;;2.37;;
16890;SDS011;8562;52.246;20.966;2023-05-20T07:24:16;3.33;;;2.63;;
16890;SDS011;8562;52.246;20.966;2023-05-20T07:26:42;3.37;;;2.63;;
16890;SDS011;8562;52.246;20.966;2023-05-20T07:29:07;4.23;;;2.63;;
16890;SDS011;8562;52.246;20.966;2023-05-20T07:31:35;2.93;;;2.20;;
16890;SDS011;8562;52.246;20.966;2023-05-20T07:34:00;2.57;;;2.00;;
16890;SDS011;8562;52.246;20.966;2023-05-20T07:36:26;2.87;;;2.57;;
16890;SDS011;8562;52.246;20.966;2023-05-20T07:38:52;2.63;;;2.07;;
16890;SDS011;8562;52.246;20.966;2023-05-20T07:41:18;3.27;;;2.73;;
16890;SDS011;8562;52.246;20.966;2023-05-20T07:43:43;2.83;;;2.37;;
16890;SDS011;8562;52.246;20.966;2023-05-20T07:46:09;3.90;;;2.60;;
16890;SDS011;8562;52.246;20.966;2023-05-20T07:48:34;3.73;;;2.60;;
16890;SDS011;8562;52.246;20.966;2023-05-20T07:51:00;5.23;;;2.30;;
16890;SDS011;8562;52.246;20.966;2023-05-20T07:53:26;4.00;;;2.30;;
16890;SDS011;8562;52.246;20.966;2023-05-20T07:55:52;3.63;;;2.47;;
16890;SDS011;8562;52.246;20.966;2023-05-20T07:58:19;4.43;;;2.50;;
16890;SDS011;8562;52.246;20.966;2023-05-20T08:00:44;4.17;;;2.40;;
16890;SDS011;8562;52.246;20.966;2023-05-20T08:03:10;6.40;;;2.40;;
16890;SDS011;8562;52.246;20.966;2023-05-20T08:05:52;3.20;;;2.50;;
16890;SDS011;8562;52.246;20.966;2023-05-20T08:08:17;3.40;;;2.40;;
16890;SDS011;8562;52.246;20.966;2023-05-20T08:10:52;3.07;;;2.40;;
16890;SDS011;8562;52.246;20.966;2023-05-20T08:13:19;3.60;;;2.47;;
16890;SDS011;8562;52.246;20.966;2023-05-20T08:15:44;5.40;;;2.33;;
16890;SDS011;8562;52.246;20.966;2023-05-20T08:18:10;2.80;;;2.20;;
16890;SDS011;8562;52.246;20.966;2023-05-20T08:20:36;2.67;;;2.10;;
16890;SDS011;8562;52.246;20.966;2023-05-20T08:23:01;2.63;;;2.43;;
16890;SDS011;8562;52.246;20.966;2023-05-20T08:25:26;2.53;;;1.70;;
16890;SDS011;8562;52.246;20.966;2023-05-20T08:27:52;3.97;;;2.70;;
16890;SDS011;8562;52.246;20.966;2023-05-20T08:30:18;3.50;;;2.23;;
16890;SDS011;8562;52.246;20.966;2023-05-20T08:32:43;4.23;;;2.93;;
16890;SDS011;8562;52.246;20.966;2023-05-20T08:35:09;7.47;;;2.90;;
16890;SDS011;8562;52.246;20.966;2023-05-20T08:37:34;3.47;;;2.33;;
16890;SDS011;8562;52.246;20.966;2023-05-20T08:40:00;3.27;;;2.27;;
16890;SDS011;8562;52.246;20.966;2023-05-20T08:42:26;3.00;;;2.33;;
16890;SDS011;8562;52.246;20.966;2023-05-20T08:44:53;4.40;;;2.63;;
16890;SDS011;8562;52.246;20.966;2023-05-20T08:47:22;4.30;;;2.53;;
16890;SDS011;8562;52.246;20.966;2023-05-20T08:49:48;2.50;;;2.30;;
16890;SDS011;8562;52.246;20.966;2023-05-20T08:52:13;2.97;;;2.07;;
16890;SDS011;8562;52.246;20.966;2023-05-20T08:54:42;3.40;;;2.60;;
16890;SDS011;8562;52.246;20.966;2023-05-20T08:57:08;3.20;;;2.27;;
16890;SDS011;8562;52.246;20.966;2023-05-20T08:59:38;2.20;;;2.00;;
16890;SDS011;8562;52.246;20.966;2023-05-20T09:02:03;3.03;;;2.70;;
16890;SDS011;8562;52.246;20.966;2023-05-20T09:04:29;3.60;;;2.40;;
16890;SDS011;8562;52.246;20.966;2023-05-20T09:06:54;3.67;;;2.50;;
16890;SDS011;8562;52.246;20.966;2023-05-20T09:09:19;4.67;;;2.43;;
16890;SDS011;8562;52.246;20.966;2023-05-20T09:11:45;3.80;;;2.37;;
16890;SDS011;8562;52.246;20.966;2023-05-20T09:14:10;7.30;;;3.13;;
16890;SDS011;8562;52.246;20.966;2023-05-20T09:16:35;4.80;;;2.87;;
16890;SDS011;8562;52.246;20.966;2023-05-20T09:19:01;3.03;;;2.73;;
16890;SDS011;8562;52.246;20.966;2023-05-20T09:21:29;3.30;;;2.93;;
16890;SDS011;8562;52.246;20.966;2023-05-20T09:23:55;3.07;;;2.40;;
16890;SDS011;8562;52.246;20.966;2023-05-20T09:26:26;2.93;;;2.60;;
16890;SDS011;8562;52.246;20.966;2023-05-20T09:28:54;3.20;;;2.87;;
16890;SDS011;8562;52.246;20.966;2023-05-20T09:31:20;3.37;;;2.63;;
16890;SDS011;8562;52.246;20.966;2023-05-20T09:33:47;4.47;;;2.73;;
16890;SDS011;8562;52.246;20.966;2023-05-20T09:36:13;5.43;;;2.83;;
16890;SDS011;8562;52.246;20.966;2023-05-20T09:38:39;6.60;;;3.17;;
16890;SDS011;8562;52.246;20.966;2023-05-20T09:41:06;4.93;;;3.27;;
16890;SDS011;8562;52.246;20.966;2023-05-20T09:43:32;4.10;;;3.10;;
16890;SDS011;8562;52.246;20.966;2023-05-20T09:45:58;4.30;;;2.40;;
16890;SDS011;8562;52.246;20.966;2023-05-20T09:48:25;3.40;;;3.10;;
16890;SDS011;8562;52.246;20.966;2023-05-20T09:50:51;3.70;;;3.33;;
16890;SDS011;8562;52.246;20.966;2023-05-20T09:53:17;3.00;;;2.67;;
16890;SDS011;8562;52.246;20.966;2023-05-20T09:55:42;4.10;;;2.77;;
16890;SDS011;8562;52.246;20.966;2023-05-20T09:58:08;3.07;;;2.73;;
16890;SDS011;8562;52.246;20.966;2023-05-20T10:00:33;3.30;;;3.00;;
16890;SDS011;8562;52.246;20.966;2023-05-20T10:02:59;6.70;;;2.87;;
16890;SDS011;8562;52.246;20.966;2023-05-20T10:05:33;6.17;;;3.13;;
16890;SDS011;8562;52.246;20.966;2023-05-20T10:10:50;4.47;;;3.20;;
16890;SDS011;8562;52.246;20.966;2023-05-20T10:13:54;4.20;;;3.30;;
16890;SDS011;8562;52.246;20.966;2023-05-20T10:21:16;3.33;;;2.90;;
16890;SDS011;8562;52.246;20.966;2023-05-20T10:23:42;4.70;;;3.03;;
16890;SDS011;8562;52.246;20.966;2023-05-20T10:26:07;4.77;;;3.13;;
16890;SDS011;8562;52.246;20.966;2023-05-20T10:28:33;3.67;;;3.23;;
16890;SDS011;8562;52.246;20.966;2023-05-20T10:31:00;4.30;;;3.73;;
16890;SDS011;8562;52.246;20.966;2023-05-20T10:33:25;3.97;;;3.57;;
16890;SDS011;8562;52.246;20.966;2023-05-20T10:35:52;6.73;;;3.47;;
16890;SDS011;8562;52.246;20.966;2023-05-20T10:38:17;6.20;;;3.40;;
16890;SDS011;8562;52.246;20.966;2023-05-20T10:40:44;5.33;;;3.37;;
16890;SDS011;8562;52.246;20.966;2023-05-20T10:43:10;5.13;;;3.23;;
16890;SDS011;8562;52.246;20.966;2023-05-20T10:45:46;4.47;;;3.03;;
16890;SDS011;8562;52.246;20.966;2023-05-20T10:48:18;3.97;;;3.60;;
16890;SDS011;8562;52.246;20.966;2023-05-20T10:50:44;5.77;;;3.67;;
16890;SDS011;8562;52.246;20.966;2023-05-20T10:53:12;9.53;;;3.73;;
16890;SDS011;8562;52.246;20.966;2023-05-20T10:55:38;5.30;;;3.50;;
16890;SDS011;8562;52.246;20.966;2023-05-20T10:58:04;4.37;;;3.50;;
16890;SDS011;8562;52.246;20.966;2023-05-20T11:00:30;7.20;;;3.97;;
16890;SDS011;8562;52.246;20.966;2023-05-20T11:02:55;4.73;;;3.33;;
16890;SDS011;8562;52.246;20.966;2023-05-20T11:05:21;5.57;;;3.83;;
16890;SDS011;8562;52.246;20.966;2023-05-20T11:07:47;4.07;;;3.67;;
16890;SDS011;8562;52.246;20.966;2023-05-20T11:10:12;4.77;;;3.87;;
16890;SDS011;8562;52.246;20.966;2023-05-20T11:12:37;5.43;;;3.53;;
16890;SDS011;8562;52.246;20.966;2023-05-20T11:15:03;6.17;;;3.80;;
16890;SDS011;8562;52.246;20.966;2023-05-20T11:17:28;3.90;;;3.50;;
16890;SDS011;8562;52.246;20.966;2023-05-20T11:19:53;3.83;;;3.40;;
16890;SDS011;8562;52.246;20.966;2023-05-20T11:22:19;3.50;;;3.10;;
16890;SDS011;8562;52.246;20.966;2023-05-20T11:24:44;3.97;;;3.50;;
16890;SDS011;8562;52.246;20.966;2023-05-20T11:27:10;4.33;;;3.87;;
16890;SDS011;8562;52.246;20.966;2023-05-20T11:29:35;4.60;;;4.00;;
16890;SDS011;8562;52.246;20.966;2023-05-20T11:32:01;4.57;;;3.53;;
16890;SDS011;8562;52.246;20.966;2023-05-20T11:34:33;4.33;;;3.70;;
16890;SDS011;8562;52.246;20.966;2023-05-20T11:36:59;5.40;;;3.50;;
16890;SDS011;8562;52.246;20.966;2023-05-20T11:39:24;4.67;;;3.37;;
16890;SDS011;8562;52.246;20.966;2023-05-20T11:41:53;3.53;;;3.20;;
16890;SDS011;8562;52.246;20.966;2023-05-20T11:44:18;10.37;;;4.23;;
16890;SDS011;8562;52.246;20.966;2023-05-20T11:46:45;5.77;;;3.97;;
16890;SDS011;8562;52.246;20.966;2023-05-20T11:49:11;4.10;;;3.53;;
16890;SDS011;8562;52.246;20.966;2023-05-20T11:51:37;4.37;;;3.60;;
16890;SDS011;8562;52.246;20.966;2023-05-20T11:54:04;6.10;;;3.47;;
16890;SDS011;8562;52.246;20.966;2023-05-20T11:56:30;4.70;;;3.53;;
16890;SDS011;8562;52.246;20.966;2023-05-20T11:58:56;4.17;;;3.77;;
16890;SDS011;8562;52.246;20.966;2023-05-20T12:01:21;8.60;;;3.73;;
16890;SDS011;8562;52.246;20.966;2023-05-20T12:03:47;5.40;;;3.87;;
16890;SDS011;8562;52.246;20.966;2023-05-20T12:06:12;3.97;;;3.40;;
16890;SDS011;8562;52.246;20.966;2023-05-20T12:08:37;5.47;;;4.00;;
16890;SDS011;8562;52.246;20.966;2023-05-20T12:11:03;5.23;;;3.93;;
16890;SDS011;8562;52.246;20.966;2023-05-20T12:13:28;4.50;;;3.80;;
16890;SDS011;8562;52.246;20.966;2023-05-20T12:15:53;4.67;;;3.20;;
16890;SDS011;8562;52.246;20.966;2023-05-20T12:18:18;3.90;;;3.47;;
16890;SDS011;8562;52.246;20.966;2023-05-20T12:20:44;4.50;;;4.10;;
16890;SDS011;8562;52.246;20.966;2023-05-20T12:23:09;6.40;;;3.70;;
16890;SDS011;8562;52.246;20.966;2023-05-20T12:25:34;4.90;;;4.07;;
16890;SDS011;8562;52.246;20.966;2023-05-20T12:28:00;5.00;;;3.43;;
16890;SDS011;8562;52.246;20.966;2023-05-20T12:30:26;4.60;;;3.60;;
16890;SDS011;8562;52.246;20.966;2023-05-20T12:32:51;5.17;;;3.50;;
16890;SDS011;8562;52.246;20.966;2023-05-20T12:35:23;5.57;;;3.70;;
16890;SDS011;8562;52.246;20.966;2023-05-20T12:37:49;7.70;;;3.60;;
16890;SDS011;8562;52.246;20.966;2023-05-20T12:40:15;4.13;;;3.73;;
16890;SDS011;8562;52.246;20.966;2023-05-20T12:42:40;4.83;;;4.00;;
16890;SDS011;8562;52.246;20.966;2023-05-20T12:45:06;4.10;;;3.63;;
16890;SDS011;8562;52.246;20.966;2023-05-20T12:47:32;3.97;;;3.13;;
16890;SDS011;8562;52.246;20.966;2023-05-20T12:49:57;9.30;;;4.10;;
16890;SDS011;8562;52.246;20.966;2023-05-20T12:52:23;5.13;;;3.57;;
16890;SDS011;8562;52.246;20.966;2023-05-20T12:54:48;5.40;;;3.73;;
16890;SDS011;8562;52.246;20.966;2023-05-20T12:57:13;4.73;;;3.43;;
16890;SDS011;8562;52.246;20.966;2023-05-20T12:59:39;7.00;;;3.47;;
16890;SDS011;8562;52.246;20.966;2023-05-20T13:02:04;4.63;;;3.67;;
16890;SDS011;8562;52.246;20.966;2023-05-20T13:04:30;6.40;;;3.87;;
16890;SDS011;8562;52.246;20.966;2023-05-20T13:06:56;5.83;;;3.80;;
16890;SDS011;8562;52.246;20.966;2023-05-20T13:09:21;6.53;;;3.77;;
16890;SDS011;8562;52.246;20.966;2023-05-20T13:11:46;3.97;;;3.57;;
16890;SDS011;8562;52.246;20.966;2023-05-20T13:14:12;4.00;;;3.70;;
16890;SDS011;8562;52.246;20.966;2023-05-20T13:16:37;3.70;;;3.40;;
16890;SDS011;8562;52.246;20.966;2023-05-20T13:19:02;3.93;;;3.33;;
16890;SDS011;8562;52.246;20.966;2023-05-20T13:21:28;4.00;;;3.60;;
16890;SDS011;8562;52.246;20.966;2023-05-20T13:23:53;6.60;;;3.67;;
16890;SDS011;8562;52.246;20.966;2023-05-20T13:26:18;5.10;;;3.70;;
16890;SDS011;8562;52.246;20.966;2023-05-20T13:28:44;5.60;;;3.87;;
16890;SDS011;8562;52.246;20.966;2023-05-20T13:31:09;5.80;;;3.83;;
16890;SDS011;8562;52.246;20.966;2023-05-20T13:33:34;5.53;;;3.83;;
16890;SDS011;8562;52.246;20.966;2023-05-20T13:36:00;4.10;;;3.60;;
16890;SDS011;8562;52.246;20.966;2023-05-20T13:38:25;4.13;;;3.30;;
16890;SDS011;8562;52.246;20.966;2023-05-20T13:40:50;4.53;;;3.57;;
16890;SDS011;8562;52.246;20.966;2023-05-20T13:43:16;3.70;;;3.20;;
16890;SDS011;8562;52.246;20.966;2023-05-20T13:45:41;7.30;;;3.87;;
16890;SDS011;8562;52.246;20.966;2023-05-20T13:48:07;4.20;;;3.80;;
16890;SDS011;8562;52.246;20.966;2023-05-20T13:50:32;5.40;;;3.87;;
16890;SDS011;8562;52.246;20.966;2023-05-20T13:52:57;5.67;;;4.37;;
16890;SDS011;8562;52.246;20.966;2023-05-20T13:55:23;5.00;;;3.53;;
16890;SDS011;8562;52.246;20.966;2023-05-20T13:57:48;6.30;;;3.60;;
16890;SDS011;8562;52.246;20.966;2023-05-20T14:00:13;5.40;;;3.77;;
16890;SDS011;8562;52.246;20.966;2023-05-20T14:02:39;4.57;;;4.13;;
16890;SDS011;8562;52.246;20.966;2023-05-20T14:05:04;4.93;;;3.87;;
16890;SDS011;8562;52.246;20.966;2023-05-20T14:07:31;5.80;;;3.40;;
16890;SDS011;8562;52.246;20.966;2023-05-20T14:09:56;4.80;;;3.73;;
16890;SDS011;8562;52.246;20.966;2023-05-20T14:12:21;5.40;;;3.70;;
16890;SDS011;8562;52.246;20.966;2023-05-20T14:14:48;3.67;;;3.30;;
16890;SDS011;8562;52.246;20.966;2023-05-20T14:17:13;4.70;;;3.50;;
16890;SDS011;8562;52.246;20.966;2023-05-20T14:19:39;4.40;;;3.93;;
16890;SDS011;8562;52.246;20.966;2023-05-20T14:22:04;4.43;;;3.37;;
16890;SDS011;8562;52.246;20.966;2023-05-20T14:24:29;3.47;;;3.17;;
16890;SDS011;8562;52.246;20.966;2023-05-20T14:26:55;4.37;;;3.30;;
16890;SDS011;8562;52.246;20.966;2023-05-20T14:29:20;3.73;;;3.17;;
16890;SDS011;8562;52.246;20.966;2023-05-20T14:31:45;3.93;;;3.60;;
16890;SDS011;8562;52.246;20.966;2023-05-20T14:34:10;3.90;;;3.23;;
16890;SDS011;8562;52.246;20.966;2023-05-20T14:36:36;4.97;;;3.43;;
16890;SDS011;8562;52.246;20.966;2023-05-20T14:39:01;4.20;;;3.27;;
16890;SDS011;8562;52.246;20.966;2023-05-20T14:41:26;4.63;;;3.53;;
16890;SDS011;8562;52.246;20.966;2023-05-20T14:43:52;4.13;;;3.43;;
16890;SDS011;8562;52.246;20.966;2023-05-20T14:46:18;3.40;;;3.10;;
16890;SDS011;8562;52.246;20.966;2023-05-20T14:48:43;3.67;;;3.17;;